The latest weather and runway conditions for major airports within the Toronto FIR.

CYYZ - Toronto-Lester B. Pearson International
CYYZ 201400Z VRB02KT 15SM FEW040 OVC130 19/10 A2990 RMK SC2AC6 SLP127 DENSITY ALT 1200FT
Suggested Runways: Departures: 23, Arrivals: 24R
CYOW - Ottawa Macdonald-Cartier International
CYOW 201400Z 24009KT 15SM BKN210 22/11 A2986 RMK CI6 SLP111 DENSITY ALT 1400FT
Suggested Runway: 25
CYTZ - Billy Bishop Toronto City
CYTZ 201400Z AUTO 23003KT 200V260 9SM CLR 17/12 A2990 RMK SLP125 DENSITY ALT 500FT
Suggested Runway: 26
CYXU - London International
CYXU 201400Z 01003KT 340V040 10SM -SHRA OVC070 18/14 A2990 RMK AC8 CVCTV CLD EMBD SLP126 DENSITY ALT 1500FT
Suggested Runway: 33
CYHM - John C. Munro Hamilton International
CYHM 201400Z 01006KT 12SM -RA FEW030 BKN037 BKN075 OVC120 17/13 A2991 RMK SC2SC3AC2AC1 SLP131 DENSITY ALT 1200FT
Suggested Runway: 30
CYKF - Region of Waterloo International
CYKF 201400Z AUTO 00000KT 9SM -RA BKN100 OVC120 17/13 A2991 RMK SLP128 DENSITY ALT 1500FT
Suggested Runway: 08
CYAM - Sault Ste. Marie
CYAM 201400Z 30007KT 15SM FEW150 SCT210 BKN240 15/11 A2993 RMK AC1CC3CC2 CONTRAILS SLP139 DENSITY ALT 800FT
Suggested Runway: 30
CYTR - Canadian Forces Base Trenton
CYTR 201400Z 21003KT 15SM BKN130 OVC250 19/14 A2988 RMK AC6CI2 SLP118
Suggested Runway: 24